sensor_id;sensor_type;location;lat;lon;timestamp;P1;durP1;ratioP1;P2;durP2;ratioP2
24685;SDS011;12804;51.176;4.452;2022-08-19T00:01:46;33.75;;;29.02;;
24685;SDS011;12804;51.176;4.452;2022-08-19T00:04:14;36.90;;;31.60;;
24685;SDS011;12804;51.176;4.452;2022-08-19T00:06:42;35.63;;;30.27;;
24685;SDS011;12804;51.176;4.452;2022-08-19T00:09:11;37.88;;;31.33;;
24685;SDS011;12804;51.176;4.452;2022-08-19T00:11:38;34.45;;;30.25;;
24685;SDS011;12804;51.176;4.452;2022-08-19T00:14:06;39.60;;;30.52;;
24685;SDS011;12804;51.176;4.452;2022-08-19T00:16:35;38.83;;;31.55;;
24685;SDS011;12804;51.176;4.452;2022-08-19T00:19:02;35.65;;;29.85;;
24685;SDS011;12804;51.176;4.452;2022-08-19T00:21:29;35.00;;;29.77;;
24685;SDS011;12804;51.176;4.452;2022-08-19T00:23:55;38.20;;;29.88;;
24685;SDS011;12804;51.176;4.452;2022-08-19T00:26:25;42.05;;;32.40;;
24685;SDS011;12804;51.176;4.452;2022-08-19T00:28:52;36.65;;;29.73;;
24685;SDS011;12804;51.176;4.452;2022-08-19T00:31:18;36.60;;;30.48;;
24685;SDS011;12804;51.176;4.452;2022-08-19T00:33:45;40.75;;;32.72;;
24685;SDS011;12804;51.176;4.452;2022-08-19T00:36:12;37.42;;;29.95;;
24685;SDS011;12804;51.176;4.452;2022-08-19T00:38:39;40.35;;;29.95;;
24685;SDS011;12804;51.176;4.452;2022-08-19T00:41:18;47.35;;;34.33;;
24685;SDS011;12804;51.176;4.452;2022-08-19T00:44:08;42.22;;;31.75;;
24685;SDS011;12804;51.176;4.452;2022-08-19T00:46:53;48.95;;;36.22;;
24685;SDS011;12804;51.176;4.452;2022-08-19T00:49:20;47.03;;;33.90;;
24685;SDS011;12804;51.176;4.452;2022-08-19T00:51:53;48.38;;;37.80;;
24685;SDS011;12804;51.176;4.452;2022-08-19T00:54:40;43.75;;;34.67;;
24685;SDS011;12804;51.176;4.452;2022-08-19T00:57:09;44.20;;;34.50;;
24685;SDS011;12804;51.176;4.452;2022-08-19T00:59:38;43.30;;;35.00;;
24685;SDS011;12804;51.176;4.452;2022-08-19T01:02:06;43.47;;;32.90;;
24685;SDS011;12804;51.176;4.452;2022-08-19T01:04:33;41.88;;;33.95;;
24685;SDS011;12804;51.176;4.452;2022-08-19T01:06:59;40.92;;;34.53;;
24685;SDS011;12804;51.176;4.452;2022-08-19T01:09:26;43.92;;;33.70;;
24685;SDS011;12804;51.176;4.452;2022-08-19T01:11:52;40.58;;;31.45;;
24685;SDS011;12804;51.176;4.452;2022-08-19T01:14:18;42.00;;;32.83;;
24685;SDS011;12804;51.176;4.452;2022-08-19T01:16:44;40.88;;;32.13;;
24685;SDS011;12804;51.176;4.452;2022-08-19T01:19:26;41.05;;;33.42;;
24685;SDS011;12804;51.176;4.452;2022-08-19T01:21:55;42.80;;;33.67;;
24685;SDS011;12804;51.176;4.452;2022-08-19T01:24:27;41.67;;;33.08;;
24685;SDS011;12804;51.176;4.452;2022-08-19T01:26:53;42.05;;;34.53;;
24685;SDS011;12804;51.176;4.452;2022-08-19T01:29:19;42.13;;;33.53;;
24685;SDS011;12804;51.176;4.452;2022-08-19T01:31:45;46.83;;;34.38;;
24685;SDS011;12804;51.176;4.452;2022-08-19T01:34:11;41.97;;;31.92;;
24685;SDS011;12804;51.176;4.452;2022-08-19T01:36:42;41.15;;;31.45;;
24685;SDS011;12804;51.176;4.452;2022-08-19T01:39:16;38.10;;;30.58;;
24685;SDS011;12804;51.176;4.452;2022-08-19T01:41:49;38.45;;;29.38;;
24685;SDS011;12804;51.176;4.452;2022-08-19T01:44:15;41.47;;;30.17;;
24685;SDS011;12804;51.176;4.452;2022-08-19T01:46:46;37.03;;;29.50;;
24685;SDS011;12804;51.176;4.452;2022-08-19T01:49:13;37.13;;;29.80;;
24685;SDS011;12804;51.176;4.452;2022-08-19T01:51:39;39.17;;;30.33;;
24685;SDS011;12804;51.176;4.452;2022-08-19T01:54:04;40.63;;;30.90;;
24685;SDS011;12804;51.176;4.452;2022-08-19T01:56:30;40.60;;;30.98;;
24685;SDS011;12804;51.176;4.452;2022-08-19T01:59:00;42.08;;;33.10;;
24685;SDS011;12804;51.176;4.452;2022-08-19T02:03:57;42.03;;;30.98;;
24685;SDS011;12804;51.176;4.452;2022-08-19T02:06:24;46.05;;;33.85;;
24685;SDS011;12804;51.176;4.452;2022-08-19T02:08:49;42.78;;;33.45;;
24685;SDS011;12804;51.176;4.452;2022-08-19T02:11:22;41.63;;;32.22;;
24685;SDS011;12804;51.176;4.452;2022-08-19T02:13:52;44.63;;;33.33;;
24685;SDS011;12804;51.176;4.452;2022-08-19T02:16:19;44.13;;;33.13;;
24685;SDS011;12804;51.176;4.452;2022-08-19T02:18:45;45.35;;;34.10;;
24685;SDS011;12804;51.176;4.452;2022-08-19T02:21:14;45.35;;;34.13;;
24685;SDS011;12804;51.176;4.452;2022-08-19T02:23:41;43.83;;;32.70;;
24685;SDS011;12804;51.176;4.452;2022-08-19T02:26:08;44.72;;;33.25;;
24685;SDS011;12804;51.176;4.452;2022-08-19T02:28:34;47.45;;;33.95;;
24685;SDS011;12804;51.176;4.452;2022-08-19T02:31:01;44.15;;;33.65;;
24685;SDS011;12804;51.176;4.452;2022-08-19T02:33:28;49.30;;;34.08;;
24685;SDS011;12804;51.176;4.452;2022-08-19T02:35:54;47.08;;;34.30;;
24685;SDS011;12804;51.176;4.452;2022-08-19T02:38:20;46.00;;;33.95;;
24685;SDS011;12804;51.176;4.452;2022-08-19T02:40:53;44.75;;;32.65;;
24685;SDS011;12804;51.176;4.452;2022-08-19T02:43:22;45.28;;;32.47;;
24685;SDS011;12804;51.176;4.452;2022-08-19T02:45:48;45.65;;;34.20;;
24685;SDS011;12804;51.176;4.452;2022-08-19T02:48:16;47.97;;;34.60;;
24685;SDS011;12804;51.176;4.452;2022-08-19T02:50:43;47.55;;;34.58;;
24685;SDS011;12804;51.176;4.452;2022-08-19T02:53:09;47.08;;;34.78;;
24685;SDS011;12804;51.176;4.452;2022-08-19T02:55:35;47.15;;;34.80;;
24685;SDS011;12804;51.176;4.452;2022-08-19T02:58:01;46.88;;;34.05;;
24685;SDS011;12804;51.176;4.452;2022-08-19T03:00:27;48.95;;;33.83;;
24685;SDS011;12804;51.176;4.452;2022-08-19T03:02:53;47.22;;;33.58;;
24685;SDS011;12804;51.176;4.452;2022-08-19T03:05:19;44.55;;;33.28;;
24685;SDS011;12804;51.176;4.452;2022-08-19T03:07:45;44.83;;;32.75;;
24685;SDS011;12804;51.176;4.452;2022-08-19T03:10:11;47.45;;;33.78;;
24685;SDS011;12804;51.176;4.452;2022-08-19T03:12:38;46.10;;;33.47;;
24685;SDS011;12804;51.176;4.452;2022-08-19T03:15:05;49.10;;;35.83;;
24685;SDS011;12804;51.176;4.452;2022-08-19T03:17:32;46.22;;;33.38;;
24685;SDS011;12804;51.176;4.452;2022-08-19T03:19:59;50.35;;;35.08;;
24685;SDS011;12804;51.176;4.452;2022-08-19T03:22:25;49.83;;;35.13;;
24685;SDS011;12804;51.176;4.452;2022-08-19T03:24:51;47.60;;;33.28;;
24685;SDS011;12804;51.176;4.452;2022-08-19T03:27:17;48.78;;;33.45;;
24685;SDS011;12804;51.176;4.452;2022-08-19T03:29:43;46.28;;;33.13;;
24685;SDS011;12804;51.176;4.452;2022-08-19T03:32:09;49.35;;;31.92;;
24685;SDS011;12804;51.176;4.452;2022-08-19T03:34:36;45.90;;;31.55;;
24685;SDS011;12804;51.176;4.452;2022-08-19T03:37:04;45.83;;;30.98;;
24685;SDS011;12804;51.176;4.452;2022-08-19T03:39:38;49.17;;;30.52;;
24685;SDS011;12804;51.176;4.452;2022-08-19T03:42:05;43.50;;;29.55;;
24685;SDS011;12804;51.176;4.452;2022-08-19T03:44:31;44.33;;;29.63;;
24685;SDS011;12804;51.176;4.452;2022-08-19T03:46:58;37.97;;;27.60;;
24685;SDS011;12804;51.176;4.452;2022-08-19T03:49:29;44.80;;;28.27;;
24685;SDS011;12804;51.176;4.452;2022-08-19T03:51:57;40.63;;;26.97;;
24685;SDS011;12804;51.176;4.452;2022-08-19T03:54:23;41.00;;;27.08;;
24685;SDS011;12804;51.176;4.452;2022-08-19T03:56:50;42.08;;;27.02;;
24685;SDS011;12804;51.176;4.452;2022-08-19T03:59:22;37.53;;;26.38;;
24685;SDS011;12804;51.176;4.452;2022-08-19T04:01:55;38.15;;;25.55;;
24685;SDS011;12804;51.176;4.452;2022-08-19T04:04:22;40.35;;;26.30;;
24685;SDS011;12804;51.176;4.452;2022-08-19T04:06:49;38.38;;;26.88;;
24685;SDS011;12804;51.176;4.452;2022-08-19T04:09:16;34.55;;;24.42;;
24685;SDS011;12804;51.176;4.452;2022-08-19T04:11:44;40.15;;;25.50;;
24685;SDS011;12804;51.176;4.452;2022-08-19T04:14:12;40.28;;;26.40;;
24685;SDS011;12804;51.176;4.452;2022-08-19T04:16:43;38.70;;;26.83;;
24685;SDS011;12804;51.176;4.452;2022-08-19T04:19:10;36.92;;;25.60;;
24685;SDS011;12804;51.176;4.452;2022-08-19T04:21:36;34.90;;;25.08;;
24685;SDS011;12804;51.176;4.452;2022-08-19T04:24:02;41.15;;;24.98;;
24685;SDS011;12804;51.176;4.452;2022-08-19T04:26:30;39.05;;;24.92;;
24685;SDS011;12804;51.176;4.452;2022-08-19T04:28:58;38.70;;;24.75;;
24685;SDS011;12804;51.176;4.452;2022-08-19T04:31:26;34.25;;;23.67;;
24685;SDS011;12804;51.176;4.452;2022-08-19T04:33:54;36.50;;;25.25;;
24685;SDS011;12804;51.176;4.452;2022-08-19T04:36:23;34.05;;;24.02;;
24685;SDS011;12804;51.176;4.452;2022-08-19T04:38:56;43.17;;;24.77;;
24685;SDS011;12804;51.176;4.452;2022-08-19T04:41:23;36.40;;;23.88;;
24685;SDS011;12804;51.176;4.452;2022-08-19T04:44:09;34.13;;;22.70;;
24685;SDS011;12804;51.176;4.452;2022-08-19T04:46:35;33.22;;;22.83;;
24685;SDS011;12804;51.176;4.452;2022-08-19T04:49:02;31.88;;;21.73;;
24685;SDS011;12804;51.176;4.452;2022-08-19T04:51:30;36.58;;;23.02;;
24685;SDS011;12804;51.176;4.452;2022-08-19T04:53:57;35.90;;;22.85;;
24685;SDS011;12804;51.176;4.452;2022-08-19T04:56:25;35.15;;;21.83;;
24685;SDS011;12804;51.176;4.452;2022-08-19T04:58:52;33.97;;;21.65;;
24685;SDS011;12804;51.176;4.452;2022-08-19T05:01:23;34.88;;;22.17;;
24685;SDS011;12804;51.176;4.452;2022-08-19T05:03:51;33.83;;;21.85;;
24685;SDS011;12804;51.176;4.452;2022-08-19T05:06:19;28.08;;;19.67;;
24685;SDS011;12804;51.176;4.452;2022-08-19T05:08:46;30.95;;;19.65;;
24685;SDS011;12804;51.176;4.452;2022-08-19T05:11:16;34.80;;;20.92;;
24685;SDS011;12804;51.176;4.452;2022-08-19T05:13:45;32.33;;;20.35;;
24685;SDS011;12804;51.176;4.452;2022-08-19T05:16:13;27.65;;;20.10;;
24685;SDS011;12804;51.176;4.452;2022-08-19T05:18:41;30.42;;;19.10;;
24685;SDS011;12804;51.176;4.452;2022-08-19T05:21:26;30.02;;;19.75;;
24685;SDS011;12804;51.176;4.452;2022-08-19T05:24:11;30.50;;;19.27;;
24685;SDS011;12804;51.176;4.452;2022-08-19T05:26:38;31.52;;;18.67;;
24685;SDS011;12804;51.176;4.452;2022-08-19T05:29:06;32.38;;;19.17;;
24685;SDS011;12804;51.176;4.452;2022-08-19T05:31:34;29.05;;;18.27;;
24685;SDS011;12804;51.176;4.452;2022-08-19T05:34:00;30.15;;;19.35;;
24685;SDS011;12804;51.176;4.452;2022-08-19T05:36:29;30.35;;;19.77;;
24685;SDS011;12804;51.176;4.452;2022-08-19T05:39:05;29.90;;;18.77;;
24685;SDS011;12804;51.176;4.452;2022-08-19T05:41:41;31.67;;;18.30;;
24685;SDS011;12804;51.176;4.452;2022-08-19T05:44:07;27.05;;;17.90;;
24685;SDS011;12804;51.176;4.452;2022-08-19T05:46:35;31.52;;;17.95;;
24685;SDS011;12804;51.176;4.452;2022-08-19T05:49:03;27.50;;;17.70;;
24685;SDS011;12804;51.176;4.452;2022-08-19T05:51:31;27.63;;;17.30;;
24685;SDS011;12804;51.176;4.452;2022-08-19T05:53:58;27.65;;;17.42;;
24685;SDS011;12804;51.176;4.452;2022-08-19T05:56:24;24.25;;;16.50;;
24685;SDS011;12804;51.176;4.452;2022-08-19T05:58:50;31.30;;;16.52;;
24685;SDS011;12804;51.176;4.452;2022-08-19T06:01:16;27.30;;;16.08;;
24685;SDS011;12804;51.176;4.452;2022-08-19T06:03:43;26.98;;;15.50;;
24685;SDS011;12804;51.176;4.452;2022-08-19T06:06:11;26.38;;;16.02;;
24685;SDS011;12804;51.176;4.452;2022-08-19T06:08:38;26.08;;;15.93;;
24685;SDS011;12804;51.176;4.452;2022-08-19T06:11:24;23.10;;;16.00;;
24685;SDS011;12804;51.176;4.452;2022-08-19T06:14:00;23.17;;;15.15;;
24685;SDS011;12804;51.176;4.452;2022-08-19T06:16:28;24.30;;;16.58;;
24685;SDS011;12804;51.176;4.452;2022-08-19T06:18:57;21.05;;;14.98;;
24685;SDS011;12804;51.176;4.452;2022-08-19T06:21:26;23.95;;;15.18;;
24685;SDS011;12804;51.176;4.452;2022-08-19T06:23:54;25.48;;;15.00;;
24685;SDS011;12804;51.176;4.452;2022-08-19T06:26:23;22.13;;;13.98;;
24685;SDS011;12804;51.176;4.452;2022-08-19T06:28:49;21.15;;;13.73;;
24685;SDS011;12804;51.176;4.452;2022-08-19T06:31:20;23.08;;;14.65;;
24685;SDS011;12804;51.176;4.452;2022-08-19T06:33:48;18.95;;;12.70;;
24685;SDS011;12804;51.176;4.452;2022-08-19T06:36:19;25.60;;;14.40;;
24685;SDS011;12804;51.176;4.452;2022-08-19T06:38:46;20.88;;;13.48;;
24685;SDS011;12804;51.176;4.452;2022-08-19T06:41:12;21.02;;;13.68;;
24685;SDS011;12804;51.176;4.452;2022-08-19T06:43:38;18.23;;;13.63;;
24685;SDS011;12804;51.176;4.452;2022-08-19T06:46:09;25.15;;;14.18;;
24685;SDS011;12804;51.176;4.452;2022-08-19T06:48:36;24.60;;;14.98;;
24685;SDS011;12804;51.176;4.452;2022-08-19T06:51:03;20.45;;;12.98;;
24685;SDS011;12804;51.176;4.452;2022-08-19T06:53:30;21.02;;;12.73;;
24685;SDS011;12804;51.176;4.452;2022-08-19T06:55:57;22.75;;;13.30;;
24685;SDS011;12804;51.176;4.452;2022-08-19T06:58:27;22.17;;;12.60;;
24685;SDS011;12804;51.176;4.452;2022-08-19T07:00:58;22.52;;;13.35;;
24685;SDS011;12804;51.176;4.452;2022-08-19T07:03:27;19.80;;;13.02;;
24685;SDS011;12804;51.176;4.452;2022-08-19T07:05:55;20.08;;;13.00;;
24685;SDS011;12804;51.176;4.452;2022-08-19T07:08:21;19.30;;;13.32;;
24685;SDS011;12804;51.176;4.452;2022-08-19T07:10:47;20.80;;;13.07;;
24685;SDS011;12804;51.176;4.452;2022-08-19T07:13:14;20.67;;;13.75;;
24685;SDS011;12804;51.176;4.452;2022-08-19T07:15:40;20.38;;;13.07;;
24685;SDS011;12804;51.176;4.452;2022-08-19T07:18:06;26.27;;;15.35;;
24685;SDS011;12804;51.176;4.452;2022-08-19T07:20:32;20.35;;;12.88;;
24685;SDS011;12804;51.176;4.452;2022-08-19T07:22:58;20.23;;;12.90;;
24685;SDS011;12804;51.176;4.452;2022-08-19T07:25:23;21.08;;;13.05;;
24685;SDS011;12804;51.176;4.452;2022-08-19T07:27:49;20.08;;;13.57;;
24685;SDS011;12804;51.176;4.452;2022-08-19T07:30:15;19.20;;;12.30;;
24685;SDS011;12804;51.176;4.452;2022-08-19T07:32:42;24.88;;;12.68;;
24685;SDS011;12804;51.176;4.452;2022-08-19T07:35:08;19.00;;;12.57;;
24685;SDS011;12804;51.176;4.452;2022-08-19T07:37:35;17.70;;;12.55;;
24685;SDS011;12804;51.176;4.452;2022-08-19T07:40:03;21.08;;;12.52;;
24685;SDS011;12804;51.176;4.452;2022-08-19T07:42:31;18.20;;;12.80;;
24685;SDS011;12804;51.176;4.452;2022-08-19T07:44:57;16.70;;;11.25;;
24685;SDS011;12804;51.176;4.452;2022-08-19T07:47:23;19.05;;;13.20;;
24685;SDS011;12804;51.176;4.452;2022-08-19T07:49:49;19.17;;;13.02;;
24685;SDS011;12804;51.176;4.452;2022-08-19T07:52:15;17.30;;;12.48;;
24685;SDS011;12804;51.176;4.452;2022-08-19T07:54:42;16.48;;;11.57;;
24685;SDS011;12804;51.176;4.452;2022-08-19T07:57:07;20.23;;;11.60;;
24685;SDS011;12804;51.176;4.452;2022-08-19T07:59:34;18.30;;;11.93;;
24685;SDS011;12804;51.176;4.452;2022-08-19T08:02:00;16.27;;;11.18;;
24685;SDS011;12804;51.176;4.452;2022-08-19T08:04:26;15.30;;;11.38;;
24685;SDS011;12804;51.176;4.452;2022-08-19T08:07:11;17.42;;;11.02;;
24685;SDS011;12804;51.176;4.452;2022-08-19T08:09:55;15.13;;;11.13;;
24685;SDS011;12804;51.176;4.452;2022-08-19T08:12:23;14.80;;;10.63;;
24685;SDS011;12804;51.176;4.452;2022-08-19T08:14:56;16.05;;;10.18;;
24685;SDS011;12804;51.176;4.452;2022-08-19T08:17:28;13.23;;;10.93;;
24685;SDS011;12804;51.176;4.452;2022-08-19T08:19:54;13.63;;;10.27;;
24685;SDS011;12804;51.176;4.452;2022-08-19T08:22:21;15.57;;;10.23;;
24685;SDS011;12804;51.176;4.452;2022-08-19T08:25:08;17.55;;;11.30;;
24685;SDS011;12804;51.176;4.452;2022-08-19T08:30:11;15.02;;;10.52;;
24685;SDS011;12804;51.176;4.452;2022-08-19T08:35:07;13.50;;;9.57;;
24685;SDS011;12804;51.176;4.452;2022-08-19T08:37:38;13.50;;;9.65;;
24685;SDS011;12804;51.176;4.452;2022-08-19T08:43:02;12.10;;;9.45;;
24685;SDS011;12804;51.176;4.452;2022-08-19T08:45:34;10.70;;;8.85;;
24685;SDS011;12804;51.176;4.452;2022-08-19T08:48:10;13.10;;;8.60;;
24685;SDS011;12804;51.176;4.452;2022-08-19T08:50:45;10.80;;;8.23;;
24685;SDS011;12804;51.176;4.452;2022-08-19T08:53:17;10.18;;;8.82;;
24685;SDS011;12804;51.176;4.452;2022-08-19T08:55:45;13.02;;;8.55;;
24685;SDS011;12804;51.176;4.452;2022-08-19T08:58:26;11.52;;;8.40;;
24685;SDS011;12804;51.176;4.452;2022-08-19T09:00:56;10.90;;;8.70;;
24685;SDS011;12804;51.176;4.452;2022-08-19T09:03:23;13.15;;;9.50;;
24685;SDS011;12804;51.176;4.452;2022-08-19T09:14:41;10.73;;;8.63;;
24685;SDS011;12804;51.176;4.452;2022-08-19T09:17:13;13.13;;;9.43;;
24685;SDS011;12804;51.176;4.452;2022-08-19T09:22:16;11.15;;;8.50;;
24685;SDS011;12804;51.176;4.452;2022-08-19T09:24:41;9.98;;;8.80;;
24685;SDS011;12804;51.176;4.452;2022-08-19T09:27:07;9.25;;;8.10;;
24685;SDS011;12804;51.176;4.452;2022-08-19T09:29:33;11.75;;;7.93;;
24685;SDS011;12804;51.176;4.452;2022-08-19T09:31:59;10.70;;;8.15;;
24685;SDS011;12804;51.176;4.452;2022-08-19T09:34:28;13.10;;;8.95;;
24685;SDS011;12804;51.176;4.452;2022-08-19T09:36:54;11.10;;;7.80;;
24685;SDS011;12804;51.176;4.452;2022-08-19T09:39:23;14.40;;;10.18;;
24685;SDS011;12804;51.176;4.452;2022-08-19T09:41:49;11.10;;;8.60;;
24685;SDS011;12804;51.176;4.452;2022-08-19T09:44:14;14.23;;;9.23;;
24685;SDS011;12804;51.176;4.452;2022-08-19T09:46:41;12.60;;;8.90;;
24685;SDS011;12804;51.176;4.452;2022-08-19T09:49:07;15.43;;;9.82;;
24685;SDS011;12804;51.176;4.452;2022-08-19T09:51:32;14.85;;;11.40;;
24685;SDS011;12804;51.176;4.452;2022-08-19T09:53:59;18.27;;;11.05;;
24685;SDS011;12804;51.176;4.452;2022-08-19T09:56:27;16.88;;;11.52;;
24685;SDS011;12804;51.176;4.452;2022-08-19T09:58:53;13.43;;;10.70;;
24685;SDS011;12804;51.176;4.452;2022-08-19T10:01:20;15.80;;;11.27;;
24685;SDS011;12804;51.176;4.452;2022-08-19T10:03:49;17.83;;;11.02;;
24685;SDS011;12804;51.176;4.452;2022-08-19T10:06:17;14.60;;;10.07;;
24685;SDS011;12804;51.176;4.452;2022-08-19T10:08:44;15.82;;;10.52;;
24685;SDS011;12804;51.176;4.452;2022-08-19T10:11:10;16.77;;;9.80;;
24685;SDS011;12804;51.176;4.452;2022-08-19T10:13:36;15.68;;;10.18;;
24685;SDS011;12804;51.176;4.452;2022-08-19T10:16:06;17.80;;;10.93;;
24685;SDS011;12804;51.176;4.452;2022-08-19T10:18:34;11.15;;;8.70;;
24685;SDS011;12804;51.176;4.452;2022-08-19T10:21:06;13.85;;;9.25;;
24685;SDS011;12804;51.176;4.452;2022-08-19T10:26:00;15.13;;;9.95;;
24685;SDS011;12804;51.176;4.452;2022-08-19T10:28:26;14.15;;;8.20;;
24685;SDS011;12804;51.176;4.452;2022-08-19T10:30:52;12.27;;;9.35;;
24685;SDS011;12804;51.176;4.452;2022-08-19T10:33:18;12.70;;;9.05;;
24685;SDS011;12804;51.176;4.452;2022-08-19T10:35:44;11.43;;;7.68;;
24685;SDS011;12804;51.176;4.452;2022-08-19T10:38:11;14.07;;;8.52;;
24685;SDS011;12804;51.176;4.452;2022-08-19T10:40:37;9.68;;;7.55;;
24685;SDS011;12804;51.176;4.452;2022-08-19T10:43:03;12.63;;;8.85;;
24685;SDS011;12804;51.176;4.452;2022-08-19T10:45:29;15.25;;;8.73;;
24685;SDS011;12804;51.176;4.452;2022-08-19T10:47:55;12.43;;;8.20;;
24685;SDS011;12804;51.176;4.452;2022-08-19T10:50:20;12.43;;;8.82;;
24685;SDS011;12804;51.176;4.452;2022-08-19T10:53:05;13.02;;;8.73;;
24685;SDS011;12804;51.176;4.452;2022-08-19T10:55:36;12.15;;;8.25;;
24685;SDS011;12804;51.176;4.452;2022-08-19T10:58:21;11.90;;;8.25;;
24685;SDS011;12804;51.176;4.452;2022-08-19T11:00:54;12.50;;;8.40;;
24685;SDS011;12804;51.176;4.452;2022-08-19T11:03:21;13.95;;;8.10;;
24685;SDS011;12804;51.176;4.452;2022-08-19T11:06:01;15.38;;;9.93;;
24685;SDS011;12804;51.176;4.452;2022-08-19T11:08:29;13.20;;;9.68;;
24685;SDS011;12804;51.176;4.452;2022-08-19T11:10:57;13.82;;;10.43;;
24685;SDS011;12804;51.176;4.452;2022-08-19T11:13:33;12.60;;;8.43;;
24685;SDS011;12804;51.176;4.452;2022-08-19T11:16:09;11.93;;;8.65;;
24685;SDS011;12804;51.176;4.452;2022-08-19T11:18:43;10.90;;;9.20;;
24685;SDS011;12804;51.176;4.452;2022-08-19T11:23:46;18.60;;;8.45;;
24685;SDS011;12804;51.176;4.452;2022-08-19T11:26:14;12.88;;;8.48;;
24685;SDS011;12804;51.176;4.452;2022-08-19T11:28:40;10.70;;;7.85;;
24685;SDS011;12804;51.176;4.452;2022-08-19T11:31:17;9.98;;;7.40;;
24685;SDS011;12804;51.176;4.452;2022-08-19T11:33:44;11.57;;;7.90;;
24685;SDS011;12804;51.176;4.452;2022-08-19T11:36:11;9.25;;;7.45;;
24685;SDS011;12804;51.176;4.452;2022-08-19T11:38:37;10.23;;;8.40;;
24685;SDS011;12804;51.176;4.452;2022-08-19T11:41:05;9.10;;;7.20;;
24685;SDS011;12804;51.176;4.452;2022-08-19T11:43:35;8.43;;;6.65;;
24685;SDS011;12804;51.176;4.452;2022-08-19T11:46:05;9.02;;;6.13;;
24685;SDS011;12804;51.176;4.452;2022-08-19T11:48:32;8.60;;;6.40;;
24685;SDS011;12804;51.176;4.452;2022-08-19T11:50:58;7.82;;;5.97;;
24685;SDS011;12804;51.176;4.452;2022-08-19T11:53:24;7.07;;;6.20;;
24685;SDS011;12804;51.176;4.452;2022-08-19T11:55:50;8.15;;;6.20;;
24685;SDS011;12804;51.176;4.452;2022-08-19T11:58:21;7.80;;;5.70;;
24685;SDS011;12804;51.176;4.452;2022-08-19T12:00:47;9.10;;;5.40;;
24685;SDS011;12804;51.176;4.452;2022-08-19T12:03:13;6.82;;;5.88;;
24685;SDS011;12804;51.176;4.452;2022-08-19T12:05:40;7.00;;;6.25;;
24685;SDS011;12804;51.176;4.452;2022-08-19T12:08:06;5.88;;;5.00;;
24685;SDS011;12804;51.176;4.452;2022-08-19T12:10:32;7.20;;;5.20;;
24685;SDS011;12804;51.176;4.452;2022-08-19T12:12:58;5.68;;;4.97;;
24685;SDS011;12804;51.176;4.452;2022-08-19T12:15:25;8.48;;;5.28;;
24685;SDS011;12804;51.176;4.452;2022-08-19T12:17:53;8.30;;;4.50;;
24685;SDS011;12804;51.176;4.452;2022-08-19T12:20:22;4.85;;;4.35;;
24685;SDS011;12804;51.176;4.452;2022-08-19T12:22:49;5.15;;;4.10;;
24685;SDS011;12804;51.176;4.452;2022-08-19T12:25:15;4.00;;;3.60;;
24685;SDS011;12804;51.176;4.452;2022-08-19T12:27:41;3.85;;;2.53;;
24685;SDS011;12804;51.176;4.452;2022-08-19T12:30:08;3.95;;;2.78;;
24685;SDS011;12804;51.176;4.452;2022-08-19T12:32:35;3.60;;;2.97;;
24685;SDS011;12804;51.176;4.452;2022-08-19T12:35:02;3.17;;;2.88;;
24685;SDS011;12804;51.176;4.452;2022-08-19T12:37:28;3.53;;;2.47;;
24685;SDS011;12804;51.176;4.452;2022-08-19T12:39:55;3.30;;;2.65;;
24685;SDS011;12804;51.176;4.452;2022-08-19T12:42:20;7.18;;;2.25;;
24685;SDS011;12804;51.176;4.452;2022-08-19T12:44:47;4.50;;;2.63;;
24685;SDS011;12804;51.176;4.452;2022-08-19T12:47:13;5.10;;;3.08;;
24685;SDS011;12804;51.176;4.452;2022-08-19T12:49:39;4.50;;;2.70;;
24685;SDS011;12804;51.176;4.452;2022-08-19T12:52:06;4.32;;;3.28;;
24685;SDS011;12804;51.176;4.452;2022-08-19T12:54:34;4.00;;;2.55;;
24685;SDS011;12804;51.176;4.452;2022-08-19T12:57:04;4.70;;;2.13;;
24685;SDS011;12804;51.176;4.452;2022-08-19T12:59:31;4.05;;;2.13;;
24685;SDS011;12804;51.176;4.452;2022-08-19T13:01:57;3.20;;;2.33;;
24685;SDS011;12804;51.176;4.452;2022-08-19T13:04:22;2.75;;;1.80;;
24685;SDS011;12804;51.176;4.452;2022-08-19T13:06:48;3.13;;;2.22;;
24685;SDS011;12804;51.176;4.452;2022-08-19T13:09:14;6.25;;;2.05;;
24685;SDS011;12804;51.176;4.452;2022-08-19T13:11:40;5.85;;;2.22;;
24685;SDS011;12804;51.176;4.452;2022-08-19T13:14:06;2.92;;;2.35;;
24685;SDS011;12804;51.176;4.452;2022-08-19T13:16:31;7.07;;;1.95;;
24685;SDS011;12804;51.176;4.452;2022-08-19T13:18:57;5.00;;;2.53;;
24685;SDS011;12804;51.176;4.452;2022-08-19T13:21:25;3.03;;;2.33;;
24685;SDS011;12804;51.176;4.452;2022-08-19T13:23:53;3.38;;;1.70;;
24685;SDS011;12804;51.176;4.452;2022-08-19T13:26:19;3.85;;;1.80;;
24685;SDS011;12804;51.176;4.452;2022-08-19T13:28:45;2.38;;;1.60;;
24685;SDS011;12804;51.176;4.452;2022-08-19T13:31:31;2.92;;;2.55;;
24685;SDS011;12804;51.176;4.452;2022-08-19T13:34:18;3.20;;;2.30;;
24685;SDS011;12804;51.176;4.452;2022-08-19T13:36:51;3.40;;;1.83;;
24685;SDS011;12804;51.176;4.452;2022-08-19T13:39:18;3.05;;;1.50;;
24685;SDS011;12804;51.176;4.452;2022-08-19T13:41:44;2.33;;;1.60;;
24685;SDS011;12804;51.176;4.452;2022-08-19T13:44:15;1.60;;;1.50;;
24685;SDS011;12804;51.176;4.452;2022-08-19T13:46:48;2.47;;;1.38;;
24685;SDS011;12804;51.176;4.452;2022-08-19T13:49:17;3.50;;;1.63;;
24685;SDS011;12804;51.176;4.452;2022-08-19T13:51:43;2.83;;;1.70;;
24685;SDS011;12804;51.176;4.452;2022-08-19T13:54:09;2.13;;;1.70;;
24685;SDS011;12804;51.176;4.452;2022-08-19T13:56:40;2.30;;;1.65;;
24685;SDS011;12804;51.176;4.452;2022-08-19T13:59:08;2.83;;;2.60;;
24685;SDS011;12804;51.176;4.452;2022-08-19T14:01:34;2.53;;;2.33;;
24685;SDS011;12804;51.176;4.452;2022-08-19T14:04:01;2.90;;;2.60;;
24685;SDS011;12804;51.176;4.452;2022-08-19T14:06:28;3.80;;;3.33;;
24685;SDS011;12804;51.176;4.452;2022-08-19T14:08:54;3.25;;;2.90;;
24685;SDS011;12804;51.176;4.452;2022-08-19T14:11:20;3.03;;;2.45;;
24685;SDS011;12804;51.176;4.452;2022-08-19T14:13:48;3.30;;;2.80;;
24685;SDS011;12804;51.176;4.452;2022-08-19T14:16:14;6.25;;;2.88;;
24685;SDS011;12804;51.176;4.452;2022-08-19T14:18:41;4.95;;;2.72;;
24685;SDS011;12804;51.176;4.452;2022-08-19T14:21:07;4.63;;;2.90;;
24685;SDS011;12804;51.176;4.452;2022-08-19T14:23:38;3.13;;;2.85;;
24685;SDS011;12804;51.176;4.452;2022-08-19T14:26:08;4.13;;;2.53;;
24685;SDS011;12804;51.176;4.452;2022-08-19T14:28:36;2.47;;;2.28;;
24685;SDS011;12804;51.176;4.452;2022-08-19T14:31:03;2.60;;;2.05;;
24685;SDS011;12804;51.176;4.452;2022-08-19T14:33:29;3.45;;;2.00;;
24685;SDS011;12804;51.176;4.452;2022-08-19T14:35:55;3.45;;;1.90;;
24685;SDS011;12804;51.176;4.452;2022-08-19T14:38:21;2.08;;;1.88;;
24685;SDS011;12804;51.176;4.452;2022-08-19T14:40:46;3.05;;;2.00;;
24685;SDS011;12804;51.176;4.452;2022-08-19T14:43:13;6.35;;;2.50;;
24685;SDS011;12804;51.176;4.452;2022-08-19T14:45:40;3.75;;;1.90;;
24685;SDS011;12804;51.176;4.452;2022-08-19T14:48:06;3.92;;;1.70;;
24685;SDS011;12804;51.176;4.452;2022-08-19T14:50:34;4.20;;;1.33;;
24685;SDS011;12804;51.176;4.452;2022-08-19T14:53:06;5.40;;;1.00;;
24685;SDS011;12804;51.176;4.452;2022-08-19T14:55:33;2.67;;;0.50;;
24685;SDS011;12804;51.176;4.452;2022-08-19T14:58:00;1.35;;;0.80;;
24685;SDS011;12804;51.176;4.452;2022-08-19T15:00:26;0.80;;;0.40;;
24685;SDS011;12804;51.176;4.452;2022-08-19T15:02:52;1.98;;;0.50;;
24685;SDS011;12804;51.176;4.452;2022-08-19T15:05:19;5.43;;;0.80;;